createdAt,value
2018-01-10T00:01:49.591Z,82.40
2018-01-10T00:04:17.900Z,82.50
2018-01-10T00:06:45.450Z,82.50
2018-01-10T00:09:15.224Z,82.50
2018-01-10T00:11:43.572Z,82.80
2018-01-10T00:14:12.660Z,82.80
2018-01-10T00:16:40.812Z,82.80
2018-01-10T00:19:08.414Z,82.90
2018-01-10T00:21:35.953Z,83.20
2018-01-10T00:24:03.561Z,83.10
2018-01-10T00:26:31.128Z,83.20
2018-01-10T00:28:58.671Z,83.20
2018-01-10T00:31:27.627Z,83.10
2018-01-10T00:33:55.195Z,83.10
2018-01-10T00:36:23.451Z,83.50
2018-01-10T00:38:51.072Z,83.30
2018-01-10T00:41:18.758Z,83.20
2018-01-10T00:43:47.710Z,83.50
2018-01-10T00:46:15.313Z,83.50
2018-01-10T00:48:42.921Z,83.50
2018-01-10T00:51:10.478Z,83.60
2018-01-10T00:53:38.064Z,83.50
2018-01-10T00:56:06.391Z,83.30
2018-01-10T00:58:40.072Z,83.40
2018-01-10T01:01:07.690Z,83.30
2018-01-10T01:03:35.255Z,83.50
2018-01-10T01:06:02.899Z,83.50
2018-01-10T01:08:32.425Z,83.40
2018-01-10T01:11:00.747Z,83.60
2018-01-10T01:13:28.335Z,83.60
2018-01-10T01:15:56.661Z,83.60
2018-01-10T01:18:24.223Z,83.50
2018-01-10T01:20:51.874Z,83.70
2018-01-10T01:23:19.433Z,83.70
2018-01-10T01:25:47.086Z,83.40
2018-01-10T01:28:14.688Z,83.40
2018-01-10T01:30:42.275Z,83.40
2018-01-10T01:33:09.852Z,83.50
2018-01-10T01:35:38.180Z,83.60
2018-01-10T01:38:12.118Z,83.50
2018-01-10T01:40:39.750Z,83.60
2018-01-10T01:43:07.326Z,83.60
2018-01-10T01:45:34.872Z,83.60
2018-01-10T01:48:05.516Z,83.70
2018-01-10T01:50:33.108Z,83.60
2018-01-10T01:53:00.710Z,83.70
2018-01-10T01:55:28.293Z,83.70
2018-01-10T01:57:55.878Z,83.90
2018-01-10T02:00:23.435Z,83.90
2018-01-10T02:02:51.046Z,83.80
2018-01-10T02:05:19.172Z,83.80
2018-01-10T02:07:46.821Z,83.90
2018-01-10T02:10:14.410Z,83.80
2018-01-10T02:12:42.143Z,83.70
2018-01-10T02:15:09.696Z,83.70
2018-01-10T02:17:37.360Z,83.60
2018-01-10T02:20:05.082Z,83.60
2018-01-10T02:22:33.412Z,83.30
2018-01-10T02:25:00.992Z,83.30
2018-01-10T02:27:37.420Z,83.30
2018-01-10T02:30:05.079Z,83.40
2018-01-10T02:32:32.639Z,83.40
2018-01-10T02:35:00.987Z,83.30
2018-01-10T02:37:29.593Z,83.20
2018-01-10T02:39:57.177Z,83.20
2018-01-10T02:42:36.499Z,83.00
2018-01-10T02:45:04.186Z,83.10
2018-01-10T02:47:31.897Z,83.00
2018-01-10T02:50:00.049Z,83.00
2018-01-10T02:52:27.676Z,83.00
2018-01-10T02:54:55.236Z,82.80
2018-01-10T02:57:22.816Z,82.80
2018-01-10T02:59:50.408Z,82.80
2018-01-10T03:02:18.940Z,82.70
2018-01-10T03:04:46.608Z,82.50
2018-01-10T03:07:16.155Z,82.60
2018-01-10T03:09:43.724Z,82.60
2018-01-10T03:12:11.305Z,82.70
2018-01-10T03:14:38.877Z,82.70
2018-01-10T03:17:06.430Z,82.50
2018-01-10T03:19:34.100Z,82.80
2018-01-10T03:22:01.713Z,82.70
2018-01-10T03:24:29.272Z,82.80
2018-01-10T03:26:56.867Z,82.80
2018-01-10T03:29:24.449Z,82.80
2018-01-10T03:31:52.023Z,82.90
2018-01-10T03:34:20.368Z,82.80
2018-01-10T03:36:47.948Z,82.80
2018-01-10T03:39:17.514Z,82.70
2018-01-10T03:41:45.871Z,82.80
2018-01-10T03:44:13.444Z,82.80
2018-01-10T03:46:41.064Z,82.90
2018-01-10T03:49:11.932Z,82.80
2018-01-10T03:51:39.494Z,83.00
2018-01-10T03:54:08.504Z,83.00
2018-01-10T03:56:36.093Z,82.90
2018-01-10T03:59:06.980Z,82.90
2018-01-10T04:01:34.533Z,82.90
2018-01-10T04:04:02.914Z,83.10
2018-01-10T04:06:31.293Z,82.90
2018-01-10T04:08:59.635Z,82.90
2018-01-10T04:11:27.261Z,82.80
2018-01-10T04:13:54.819Z,82.90
2018-01-10T04:16:22.381Z,82.80
2018-01-10T04:18:50.012Z,82.90
2018-01-10T04:21:17.604Z,82.90
2018-01-10T04:23:45.196Z,82.90
2018-01-10T04:26:12.813Z,82.90
2018-01-10T04:28:42.184Z,83.00
2018-01-10T04:31:09.728Z,82.90
2018-01-10T04:33:37.304Z,83.30
2018-01-10T04:36:04.887Z,83.10
2018-01-10T04:38:33.425Z,83.10
2018-01-10T04:41:01.077Z,83.10
2018-01-10T04:43:28.628Z,83.10
2018-01-10T04:45:56.958Z,83.30
2018-01-10T04:48:24.581Z,83.20
2018-01-10T04:50:52.229Z,83.20
2018-01-10T04:53:20.578Z,83.10
2018-01-10T04:55:48.209Z,83.10
2018-01-10T04:58:19.905Z,83.20
2018-01-10T05:00:47.523Z,83.30
2018-01-10T05:03:15.136Z,83.30
2018-01-10T05:05:42.686Z,83.30
2018-01-10T05:08:10.622Z,83.30
2018-01-10T05:10:38.780Z,83.40
2018-01-10T05:13:06.348Z,83.30
2018-01-10T05:15:34.014Z,83.40
2018-01-10T05:18:03.544Z,83.50
2018-01-10T05:20:31.146Z,83.60
2018-01-10T05:23:00.385Z,83.80
2018-01-10T05:25:27.961Z,83.70
2018-01-10T05:27:55.521Z,83.80
2018-01-10T05:30:25.786Z,83.80
2018-01-10T05:32:53.384Z,83.90
2018-01-10T05:35:20.977Z,83.90
2018-01-10T05:37:48.583Z,84.00
2018-01-10T05:40:16.137Z,84.00
2018-01-10T05:42:43.753Z,83.90
2018-01-10T05:45:11.342Z,84.00
2018-01-10T05:47:39.883Z,84.00
2018-01-10T05:50:07.444Z,84.00
2018-01-10T05:52:35.916Z,84.00
2018-01-10T05:55:03.507Z,84.00
2018-01-10T05:57:35.164Z,84.10
2018-01-10T06:00:02.744Z,83.90
2018-01-10T06:02:30.300Z,84.00
2018-01-10T06:04:57.879Z,84.00
2018-01-10T06:07:25.571Z,84.00
2018-01-10T06:09:53.974Z,84.10
2018-01-10T06:12:22.349Z,84.30
2018-01-10T06:14:50.733Z,84.50
2018-01-10T06:17:22.089Z,84.50
2018-01-10T06:19:50.464Z,84.50
2018-01-10T06:22:19.557Z,84.90
2018-01-10T06:24:47.898Z,84.90
2018-01-10T06:27:15.443Z,84.80
2018-01-10T06:29:43.013Z,84.80
2018-01-10T06:32:11.954Z,84.90
2018-01-10T06:34:40.313Z,84.90
2018-01-10T06:37:07.921Z,84.90
2018-01-10T06:39:36.219Z,85.00
2018-01-10T06:42:03.967Z,84.90
2018-01-10T06:44:31.656Z,85.10
2018-01-10T06:46:59.229Z,85.00
2018-01-10T06:49:26.802Z,85.30
2018-01-10T06:51:54.400Z,85.40
2018-01-10T06:54:21.988Z,85.50
2018-01-10T06:56:49.629Z,85.50
2018-01-10T06:59:18.959Z,85.80
2018-01-10T07:01:46.565Z,85.90
2018-01-10T07:04:14.148Z,86.10
2018-01-10T07:06:42.507Z,86.20
2018-01-10T07:09:14.797Z,86.20
2018-01-10T07:11:43.225Z,86.70
2018-01-10T07:14:10.784Z,86.60
2018-01-10T07:16:38.331Z,86.50
2018-01-10T07:19:05.925Z,86.50
2018-01-10T07:21:33.478Z,86.40
2018-01-10T07:24:01.068Z,86.30
2018-01-10T07:26:28.936Z,86.40
2018-01-10T07:28:57.232Z,86.30
2018-01-10T07:31:25.537Z,86.30
2018-01-10T07:33:53.112Z,86.20
2018-01-10T07:36:20.698Z,86.30
2018-01-10T07:38:48.242Z,86.30
2018-01-10T07:41:15.857Z,86.30
2018-01-10T07:43:44.463Z,86.10
2018-01-10T07:46:12.039Z,86.10
2018-01-10T07:48:40.609Z,86.10
2018-01-10T07:51:08.929Z,86.40
2018-01-10T07:53:36.485Z,86.40
2018-01-10T07:56:04.119Z,86.40
2018-01-10T07:58:31.715Z,86.50
2018-01-10T08:00:59.275Z,86.40
2018-01-10T08:03:26.832Z,86.40
2018-01-10T08:05:55.167Z,86.30
2018-01-10T08:08:23.496Z,86.40
2018-01-10T08:10:51.089Z,86.30
2018-01-10T08:13:18.640Z,86.10
2018-01-10T08:15:46.222Z,86.30
2018-01-10T08:18:18.068Z,86.30
2018-01-10T08:20:45.623Z,86.30
2018-01-10T08:23:13.186Z,86.30
2018-01-10T08:25:40.777Z,86.20
2018-01-10T08:28:09.091Z,86.30
2018-01-10T08:30:36.641Z,86.30
2018-01-10T08:33:04.313Z,86.30
2018-01-10T08:35:33.101Z,86.40
2018-01-10T08:38:05.873Z,86.60
2018-01-10T08:40:33.430Z,86.80
2018-01-10T08:43:01.002Z,86.80
2018-01-10T08:45:28.580Z,86.90
2018-01-10T08:47:57.075Z,86.90
2018-01-10T08:50:25.160Z,87.10
2018-01-10T08:52:54.186Z,87.20
2018-01-10T08:55:21.718Z,87.60
2018-01-10T08:57:49.297Z,87.60
2018-01-10T09:00:16.868Z,87.70
2018-01-10T09:02:44.998Z,87.60
2018-01-10T09:05:12.570Z,87.90
2018-01-10T09:07:40.148Z,87.80
2018-01-10T09:10:07.716Z,87.70
2018-01-10T09:12:35.257Z,87.80
2018-01-10T09:15:02.837Z,87.80
2018-01-10T09:17:31.347Z,87.70
2018-01-10T09:19:58.935Z,87.90
2018-01-10T09:22:27.808Z,87.90
2018-01-10T09:24:56.199Z,87.90
2018-01-10T09:27:24.816Z,87.90
2018-01-10T09:29:53.101Z,88.10
2018-01-10T09:32:21.404Z,88.00
2018-01-10T09:34:48.931Z,87.90
2018-01-10T09:37:16.496Z,88.00
2018-01-10T09:39:45.075Z,88.10
2018-01-10T09:42:12.636Z,87.90
2018-01-10T09:44:40.234Z,87.90
2018-01-10T09:47:08.302Z,87.90
2018-01-10T09:49:36.589Z,87.90
2018-01-10T09:52:04.223Z,88.00
2018-01-10T09:54:31.817Z,87.90
2018-01-10T09:56:59.371Z,87.90
2018-01-10T09:59:27.005Z,87.90
2018-01-10T10:01:54.549Z,87.70
2018-01-10T10:04:22.805Z,87.70
2018-01-10T10:06:52.445Z,87.30
2018-01-10T10:09:20.011Z,87.30
2018-01-10T10:11:47.702Z,87.40
2018-01-10T10:14:15.306Z,87.40
2018-01-10T10:16:43.622Z,87.40
2018-01-10T10:19:11.977Z,87.30
2018-01-10T10:21:39.558Z,87.20
2018-01-10T10:24:07.090Z,87.40
2018-01-10T10:26:34.650Z,86.90
2018-01-10T10:29:02.253Z,87.20
2018-01-10T10:31:29.814Z,86.90
2018-01-10T10:33:57.381Z,86.60
2018-01-10T10:36:26.535Z,86.30
2018-01-10T10:38:56.833Z,86.10
2018-01-10T10:41:24.391Z,86.00
2018-01-10T10:43:51.991Z,85.70
2018-01-10T10:46:20.308Z,85.80
2018-01-10T10:48:47.864Z,85.80
2018-01-10T10:51:15.422Z,85.70
2018-01-10T10:53:42.960Z,85.70
2018-01-10T10:56:10.501Z,85.20
2018-01-10T10:58:38.888Z,85.30
2018-01-10T11:01:06.438Z,85.30
2018-01-10T11:03:35.588Z,85.40
2018-01-10T11:06:03.172Z,85.30
2018-01-10T11:08:35.036Z,84.90
2018-01-10T11:11:02.594Z,84.80
2018-01-10T11:13:30.205Z,84.60
2018-01-10T11:15:58.574Z,84.20
2018-01-10T11:18:27.961Z,83.90
2018-01-10T11:20:55.631Z,83.80
2018-01-10T11:23:23.202Z,84.30
2018-01-10T11:25:51.561Z,83.60
2018-01-10T11:28:28.012Z,83.60
2018-01-10T11:30:55.581Z,83.80
2018-01-10T11:33:23.128Z,83.80
2018-01-10T11:35:50.721Z,83.70
2018-01-10T11:38:18.260Z,83.30
2018-01-10T11:40:45.795Z,83.10
2018-01-10T11:43:15.169Z,82.80
2018-01-10T11:45:44.051Z,83.00
2018-01-10T11:48:12.840Z,83.00
2018-01-10T11:50:41.232Z,82.70
2018-01-10T11:53:08.816Z,81.80
2018-01-10T11:55:36.374Z,82.20
2018-01-10T11:58:10.852Z,82.90
2018-01-10T12:00:38.961Z,82.10
2018-01-10T12:03:06.511Z,82.20
2018-01-10T12:05:34.888Z,82.40
2018-01-10T12:08:03.346Z,81.90
2018-01-10T12:10:30.937Z,81.70
2018-01-10T12:12:59.378Z,81.10
2018-01-10T12:15:27.153Z,81.50
2018-01-10T12:17:56.518Z,81.80
2018-01-10T12:20:24.106Z,81.80
2018-01-10T12:22:51.685Z,81.10
2018-01-10T12:25:19.227Z,81.10
2018-01-10T12:27:46.804Z,82.00
2018-01-10T12:30:14.359Z,82.30
2018-01-10T12:32:41.912Z,82.20
2018-01-10T12:35:09.545Z,82.30
2018-01-10T12:37:38.018Z,81.80
2018-01-10T12:40:06.330Z,81.70
2018-01-10T12:42:33.972Z,81.60
2018-01-10T12:45:01.501Z,81.50
2018-01-10T12:47:31.772Z,81.70
2018-01-10T12:49:59.356Z,81.60
2018-01-10T12:52:27.385Z,81.90
2018-01-10T12:54:54.995Z,81.50
2018-01-10T12:57:22.601Z,81.90
2018-01-10T12:59:50.939Z,82.00
2018-01-10T13:02:18.537Z,81.80
2018-01-10T13:04:46.144Z,81.50
2018-01-10T13:07:16.627Z,80.90
2018-01-10T13:09:44.187Z,81.20
2018-01-10T13:12:11.831Z,81.90
2018-01-10T13:14:39.409Z,81.60
2018-01-10T13:17:06.983Z,80.50
2018-01-10T13:19:34.642Z,81.00
2018-01-10T13:22:03.228Z,80.80
2018-01-10T13:24:30.770Z,81.00
2018-01-10T13:26:58.890Z,80.50
2018-01-10T13:29:28.506Z,80.80
2018-01-10T13:31:56.049Z,81.00
2018-01-10T13:34:23.649Z,80.60
2018-01-10T13:36:52.609Z,80.70
2018-01-10T13:39:20.945Z,80.60
2018-01-10T13:41:48.529Z,80.70
2018-01-10T13:44:16.892Z,79.90
2018-01-10T13:46:44.432Z,79.90
2018-01-10T13:49:13.006Z,79.90
2018-01-10T13:51:40.587Z,80.10
2018-01-10T13:54:08.132Z,79.50
2018-01-10T13:56:35.706Z,80.10
2018-01-10T13:59:03.276Z,80.00
2018-01-10T14:01:31.290Z,80.60
2018-01-10T14:03:59.648Z,79.50
2018-01-10T14:06:27.297Z,79.50
2018-01-10T14:08:55.490Z,79.50
2018-01-10T14:11:23.098Z,79.90
2018-01-10T14:13:50.649Z,79.10
2018-01-10T14:16:18.222Z,80.20
2018-01-10T14:18:45.811Z,80.50
2018-01-10T14:21:13.355Z,80.50
2018-01-10T14:23:40.927Z,80.70
2018-01-10T14:26:08.515Z,80.80
2018-01-10T14:28:37.049Z,81.00
2018-01-10T14:31:04.658Z,81.10
2018-01-10T14:33:32.228Z,80.50
2018-01-10T14:35:59.776Z,80.60
2018-01-10T14:38:27.322Z,80.60
2018-01-10T14:40:54.906Z,80.90
2018-01-10T14:43:22.456Z,81.20
2018-01-10T14:45:50.038Z,81.10
2018-01-10T14:48:22.812Z,81.40
2018-01-10T14:50:50.402Z,81.30
2018-01-10T14:53:17.954Z,81.50
2018-01-10T14:55:45.564Z,81.40
2018-01-10T14:58:13.814Z,81.50
2018-01-10T15:00:42.124Z,81.90
2018-01-10T15:03:09.723Z,81.70
2018-01-10T15:05:39.747Z,81.70
2018-01-10T15:08:07.302Z,81.70
2018-01-10T15:10:34.922Z,82.60
2018-01-10T15:13:03.176Z,82.10
2018-01-10T15:15:30.769Z,82.30
2018-01-10T15:18:00.351Z,82.40
2018-01-10T15:20:29.106Z,82.50
2018-01-10T15:22:56.698Z,82.60
2018-01-10T15:25:24.318Z,82.50
2018-01-10T15:27:52.018Z,82.70
2018-01-10T15:30:19.678Z,82.60
2018-01-10T15:32:47.294Z,82.70
2018-01-10T15:35:14.940Z,82.80
2018-01-10T15:37:43.254Z,82.90
2018-01-10T15:40:10.880Z,83.00
2018-01-10T15:42:39.152Z,83.00
2018-01-10T15:45:06.841Z,83.20
2018-01-10T15:47:34.522Z,83.00
2018-01-10T15:50:02.155Z,83.00
2018-01-10T15:52:29.737Z,82.90
2018-01-10T15:54:57.427Z,83.10
2018-01-10T15:57:26.699Z,83.00
2018-01-10T15:59:54.391Z,83.20
2018-01-10T16:02:21.997Z,83.50
2018-01-10T16:04:49.614Z,83.50
2018-01-10T16:07:18.168Z,83.50
2018-01-10T16:09:47.840Z,83.70
2018-01-10T16:12:16.260Z,83.50
2018-01-10T16:14:43.882Z,83.70
2018-01-10T16:17:15.700Z,84.10
2018-01-10T16:19:43.290Z,84.00
2018-01-10T16:22:10.832Z,84.20
2018-01-10T16:24:38.438Z,84.00
2018-01-10T16:27:07.310Z,84.00
2018-01-10T16:29:35.713Z,83.90
2018-01-10T16:32:04.196Z,83.80
2018-01-10T16:34:31.783Z,83.90
2018-01-10T16:36:59.339Z,83.70
2018-01-10T16:39:26.988Z,83.70
2018-01-10T16:41:55.257Z,83.70
2018-01-10T16:44:23.094Z,83.60
2018-01-10T16:46:51.434Z,83.30
2018-01-10T16:49:19.188Z,83.20
2018-01-10T16:51:46.776Z,83.10
2018-01-10T16:54:14.378Z,83.00
2018-01-10T16:56:42.022Z,83.10
2018-01-10T16:59:09.570Z,82.80
2018-01-10T17:01:37.168Z,82.80
2018-01-10T17:04:05.732Z,81.90
2018-01-10T17:06:33.371Z,81.70
2018-01-10T17:09:05.314Z,81.10
2018-01-10T17:11:32.855Z,80.70
2018-01-10T17:14:01.215Z,80.90
2018-01-10T17:16:28.813Z,80.80
2018-01-10T17:18:56.475Z,80.70
2018-01-10T17:21:24.021Z,80.10
2018-01-10T17:23:53.130Z,79.80
2018-01-10T17:26:21.463Z,79.60
2018-01-10T17:28:50.085Z,79.60
2018-01-10T17:31:19.938Z,79.40
2018-01-10T17:33:47.570Z,79.50
2018-01-10T17:36:17.846Z,79.60
2018-01-10T17:38:45.582Z,79.40
2018-01-10T17:41:13.198Z,79.10
2018-01-10T17:43:41.733Z,79.30
2018-01-10T17:46:09.366Z,79.20
2018-01-10T17:48:39.725Z,79.60
2018-01-10T17:51:07.893Z,79.40
2018-01-10T17:53:35.937Z,79.50
2018-01-10T17:56:04.298Z,79.60
2018-01-10T17:58:31.938Z,79.60
2018-01-10T18:00:59.608Z,79.80
2018-01-10T18:03:32.323Z,80.40
2018-01-10T18:06:00.031Z,79.50
2018-01-10T18:08:32.163Z,79.70
2018-01-10T18:11:01.822Z,80.00
2018-01-10T18:13:31.322Z,79.80
2018-01-10T18:15:58.902Z,79.90
2018-01-10T18:18:28.429Z,80.20
2018-01-10T18:20:56.126Z,80.50
2018-01-10T18:23:23.708Z,80.50
2018-01-10T18:25:51.348Z,80.60
2018-01-10T18:28:19.696Z,80.90
2018-01-10T18:30:47.280Z,80.80
2018-01-10T18:33:16.796Z,81.50
2018-01-10T18:35:46.407Z,81.30
2018-01-10T18:38:16.750Z,81.60
2018-01-10T18:40:44.319Z,81.60
2018-01-10T18:43:11.945Z,81.20
2018-01-10T18:45:39.633Z,81.50
2018-01-10T18:48:07.611Z,81.40
2018-01-10T18:50:35.246Z,82.00
2018-01-10T18:53:02.797Z,81.40
2018-01-10T18:55:30.355Z,81.10
2018-01-10T18:57:58.962Z,81.40
2018-01-10T19:00:27.067Z,81.00
2018-01-10T19:02:56.954Z,81.50
2018-01-10T19:05:24.628Z,81.10
2018-01-10T19:07:54.033Z,80.50
2018-01-10T19:10:23.638Z,80.80
2018-01-10T19:12:53.487Z,80.70
2018-01-10T19:15:21.058Z,81.20
2018-01-10T19:17:49.729Z,80.70
2018-01-10T19:20:17.374Z,80.50
2018-01-10T19:22:45.061Z,80.40
2018-01-10T19:25:13.427Z,80.80
2018-01-10T19:27:41.069Z,80.80
2018-01-10T19:30:09.437Z,80.60
2018-01-10T19:32:36.981Z,80.60
2018-01-10T19:35:05.351Z,80.50
2018-01-10T19:37:49.430Z,80.50
2018-01-10T19:40:17.038Z,80.80
2018-01-10T19:42:44.730Z,80.50
2018-01-10T19:45:12.296Z,80.40
2018-01-10T19:47:39.954Z,80.30
2018-01-10T19:50:08.452Z,80.80
2018-01-10T19:52:36.048Z,80.60
2018-01-10T19:55:09.432Z,80.10
2018-01-10T19:57:40.182Z,80.40
2018-01-10T20:00:11.151Z,80.30
2018-01-10T20:02:40.315Z,80.40
2018-01-10T20:05:12.195Z,80.30
2018-01-10T20:07:41.699Z,80.20
2018-01-10T20:10:11.990Z,80.60
2018-01-10T20:12:40.461Z,80.70
2018-01-10T20:15:09.254Z,80.30
2018-01-10T20:17:39.895Z,80.40
2018-01-10T20:20:07.512Z,80.60
2018-01-10T20:22:35.879Z,80.10
2018-01-10T20:25:03.476Z,80.60
2018-01-10T20:27:33.024Z,80.90
2018-01-10T20:30:00.672Z,80.70
2018-01-10T20:32:28.298Z,81.50
2018-01-10T20:34:55.880Z,81.10
2018-01-10T20:37:25.512Z,81.30
2018-01-10T20:39:53.084Z,81.70
2018-01-10T20:42:21.410Z,81.50
2018-01-10T20:44:49.018Z,81.50
2018-01-10T20:47:17.431Z,82.10
2018-01-10T20:49:45.199Z,82.00
2018-01-10T20:52:12.852Z,82.40
2018-01-10T20:54:45.381Z,83.00
2018-01-10T20:57:13.108Z,83.00
2018-01-10T20:59:43.848Z,82.80
2018-01-10T21:02:13.391Z,82.80
2018-01-10T21:04:43.043Z,83.00
2018-01-10T21:07:15.687Z,83.60
2018-01-10T21:09:48.926Z,83.50
2018-01-10T21:12:21.911Z,83.50
2018-01-10T21:14:50.300Z,83.60
2018-01-10T21:17:29.124Z,83.60
2018-01-10T21:19:57.291Z,83.80
2018-01-10T21:22:24.948Z,83.90
2018-01-10T21:24:53.116Z,84.00
2018-01-10T21:27:22.333Z,84.30
2018-01-10T21:29:50.750Z,84.40
2018-01-10T21:32:18.320Z,84.30
2018-01-10T21:34:45.955Z,84.40
2018-01-10T21:37:15.059Z,84.40
2018-01-10T21:39:42.679Z,84.60
2018-01-10T21:42:13.119Z,84.80
2018-01-10T21:44:43.206Z,84.90
2018-01-10T21:47:11.971Z,85.10
2018-01-10T21:49:42.201Z,85.10
2018-01-10T21:52:12.737Z,85.30
2018-01-10T21:54:41.305Z,85.00
2018-01-10T21:57:11.678Z,85.30
2018-01-10T21:59:39.299Z,85.50
2018-01-10T22:02:06.964Z,85.30
2018-01-10T22:04:34.588Z,85.30
2018-01-10T22:07:02.244Z,85.10
2018-01-10T22:09:30.808Z,85.00
2018-01-10T22:11:58.456Z,84.90
2018-01-10T22:14:26.641Z,85.00
2018-01-10T22:16:54.237Z,85.20
2018-01-10T22:19:23.640Z,85.10
2018-01-10T22:21:52.032Z,85.10
2018-01-10T22:24:20.021Z,85.10
2018-01-10T22:26:47.767Z,85.10
2018-01-10T22:29:16.159Z,85.10
2018-01-10T22:31:43.769Z,85.10
2018-01-10T22:34:11.340Z,85.20
2018-01-10T22:36:38.926Z,85.10
2018-01-10T22:39:08.503Z,85.20
2018-01-10T22:41:36.092Z,85.30
2018-01-10T22:44:03.666Z,85.30
2018-01-10T22:46:31.228Z,85.30
2018-01-10T22:48:59.616Z,85.50
2018-01-10T22:51:27.234Z,85.50
2018-01-10T22:53:54.880Z,85.60
2018-01-10T22:56:22.487Z,85.50
2018-01-10T22:58:50.862Z,85.50
2018-01-10T23:01:18.406Z,85.50
2018-01-10T23:03:47.014Z,85.60
2018-01-10T23:06:16.053Z,85.80
2018-01-10T23:08:43.645Z,85.70
2018-01-10T23:11:11.275Z,85.80
2018-01-10T23:13:38.853Z,85.90
2018-01-10T23:16:06.415Z,85.80
2018-01-10T23:18:34.087Z,86.00
2018-01-10T23:21:01.684Z,86.20
2018-01-10T23:23:29.265Z,86.50
2018-01-10T23:25:57.644Z,86.50
2018-01-10T23:28:26.152Z,86.40
2018-01-10T23:30:53.756Z,86.70
2018-01-10T23:33:21.342Z,86.70
2018-01-10T23:35:48.920Z,86.70
2018-01-10T23:38:20.014Z,86.80
2018-01-10T23:40:47.650Z,86.80
2018-01-10T23:43:15.233Z,86.80
2018-01-10T23:45:42.783Z,86.90
2018-01-10T23:48:11.329Z,86.80
2018-01-10T23:50:39.499Z,86.90
2018-01-10T23:53:07.169Z,86.90
2018-01-10T23:55:34.761Z,86.90
2018-01-10T23:58:03.301Z,86.90
